createdAt,value
2018-05-09T00:00:49.938Z,0
2018-05-09T00:01:59.184Z,0
2018-05-09T00:03:08.608Z,0
2018-05-09T00:04:17.797Z,0
2018-05-09T00:05:26.998Z,0
2018-05-09T00:06:36.157Z,0
2018-05-09T00:07:46.097Z,0
2018-05-09T00:08:55.786Z,0
2018-05-09T00:10:05.240Z,0
2018-05-09T00:11:14.904Z,0
2018-05-09T00:12:24.607Z,0
2018-05-09T00:13:34.290Z,0
2018-05-09T00:14:43.788Z,0
2018-05-09T00:15:52.680Z,0
2018-05-09T00:17:02.770Z,0
2018-05-09T00:18:12.435Z,0
2018-05-09T00:19:21.877Z,0
2018-05-09T00:20:31.320Z,0
2018-05-09T00:21:40.729Z,0
2018-05-09T00:22:49.634Z,0
2018-05-09T00:23:59.083Z,0
2018-05-09T00:25:08.543Z,0
2018-05-09T00:26:17.706Z,0
2018-05-09T00:27:26.888Z,0
2018-05-09T00:28:36.567Z,0
2018-05-09T00:29:46.594Z,0
2018-05-09T00:30:55.760Z,0
2018-05-09T00:32:05.418Z,0
2018-05-09T00:33:14.585Z,0
2018-05-09T00:34:24.302Z,0
2018-05-09T00:35:33.211Z,0
2018-05-09T00:36:42.649Z,0
2018-05-09T00:37:52.059Z,0
2018-05-09T00:39:01.744Z,0
2018-05-09T00:40:11.173Z,0
2018-05-09T00:41:20.461Z,0
2018-05-09T00:42:29.557Z,0
2018-05-09T00:43:39.029Z,0
2018-05-09T00:44:48.454Z,0
2018-05-09T00:45:58.157Z,0
2018-05-09T00:47:07.840Z,0
2018-05-09T00:48:17.520Z,0
2018-05-09T00:49:26.961Z,0
2018-05-09T00:50:36.141Z,0
2018-05-09T00:51:45.287Z,0
2018-05-09T00:52:54.989Z,0
2018-05-09T00:54:04.407Z,0
2018-05-09T00:55:13.558Z,0
2018-05-09T00:56:23.246Z,0
2018-05-09T00:57:32.403Z,0
2018-05-09T00:58:41.589Z,0
2018-05-09T00:59:51.260Z,0
2018-05-09T01:01:00.179Z,0
2018-05-09T01:02:09.634Z,0
2018-05-09T01:03:19.072Z,0
2018-05-09T01:04:28.261Z,0
2018-05-09T01:05:37.454Z,0
2018-05-09T01:06:47.191Z,0
2018-05-09T01:07:56.638Z,0
2018-05-09T01:09:06.063Z,0
2018-05-09T01:10:15.230Z,0
2018-05-09T01:11:24.990Z,0
2018-05-09T01:12:33.906Z,0
2018-05-09T01:13:43.351Z,0
2018-05-09T01:15:05.813Z,0
2018-05-09T01:16:15.475Z,0
2018-05-09T01:17:24.661Z,0
2018-05-09T01:18:34.093Z,0
2018-05-09T01:19:43.805Z,0
2018-05-09T01:20:53.239Z,0
2018-05-09T01:22:02.394Z,0
2018-05-09T01:23:11.593Z,0
2018-05-09T01:24:21.265Z,0
2018-05-09T01:25:30.952Z,0
2018-05-09T01:26:40.112Z,0
2018-05-09T01:27:49.289Z,0
2018-05-09T01:28:58.963Z,0
2018-05-09T01:30:08.634Z,0
2018-05-09T01:31:18.344Z,0
2018-05-09T01:32:27.282Z,0
2018-05-09T01:33:36.441Z,0
2018-05-09T01:34:46.115Z,0
2018-05-09T01:35:55.833Z,0
2018-05-09T01:37:05.274Z,0
2018-05-09T01:38:14.684Z,0
2018-05-09T01:39:23.635Z,0
2018-05-09T01:40:33.596Z,0
2018-05-09T01:41:43.053Z,0
2018-05-09T01:42:51.964Z,0
2018-05-09T01:44:01.377Z,0
2018-05-09T01:45:11.309Z,0
2018-05-09T01:46:20.487Z,0
2018-05-09T01:47:29.387Z,0
2018-05-09T01:48:38.830Z,0
2018-05-09T01:49:48.013Z,0
2018-05-09T01:50:57.671Z,0
2018-05-09T01:52:07.358Z,0
2018-05-09T01:53:17.053Z,0
2018-05-09T01:54:26.481Z,0
2018-05-09T01:55:36.190Z,0
2018-05-09T01:56:45.592Z,0
2018-05-09T01:57:54.756Z,0
2018-05-09T01:59:03.936Z,0
2018-05-09T02:00:13.391Z,0
2018-05-09T02:01:22.029Z,0
2018-05-09T02:02:31.714Z,0
2018-05-09T02:03:41.147Z,0
2018-05-09T02:04:50.311Z,0
2018-05-09T02:06:00.114Z,0
2018-05-09T02:07:09.495Z,0
2018-05-09T02:08:18.914Z,0
2018-05-09T02:09:28.332Z,0
2018-05-09T02:10:37.800Z,0
2018-05-09T02:11:47.240Z,0
2018-05-09T02:12:56.916Z,0
2018-05-09T02:14:06.362Z,0
2018-05-09T02:15:15.785Z,0
2018-05-09T02:16:25.248Z,0
2018-05-09T02:17:34.783Z,0
2018-05-09T02:18:44.752Z,0
2018-05-09T02:19:54.430Z,0
2018-05-09T02:21:03.579Z,0
2018-05-09T02:22:13.267Z,0
2018-05-09T02:23:22.740Z,0
2018-05-09T02:24:32.928Z,0
2018-05-09T02:25:42.130Z,0
2018-05-09T02:26:51.293Z,0
2018-05-09T02:28:00.211Z,0
2018-05-09T02:29:09.643Z,0
2018-05-09T02:30:19.146Z,0
2018-05-09T02:31:28.066Z,0
2018-05-09T02:32:37.995Z,0
2018-05-09T02:33:47.222Z,0
2018-05-09T02:34:56.391Z,0
2018-05-09T02:36:05.588Z,0
2018-05-09T02:37:15.103Z,0
2018-05-09T02:38:24.859Z,0
2018-05-09T02:39:34.539Z,0
2018-05-09T02:40:44.009Z,0
2018-05-09T02:41:54.206Z,0
2018-05-09T02:43:03.397Z,0
2018-05-09T02:44:12.841Z,0
2018-05-09T02:45:22.315Z,0
2018-05-09T02:46:31.735Z,0
2018-05-09T02:47:40.627Z,0
2018-05-09T02:48:50.420Z,0
2018-05-09T02:50:00.851Z,0
2018-05-09T02:51:10.468Z,0
2018-05-09T02:52:19.383Z,0
2018-05-09T02:53:28.809Z,0
2018-05-09T02:54:38.505Z,0
2018-05-09T02:55:47.932Z,0
2018-05-09T02:56:57.892Z,0
2018-05-09T02:58:07.583Z,0
2018-05-09T02:59:17.114Z,0
2018-05-09T03:00:26.806Z,0
2018-05-09T03:01:35.968Z,0
2018-05-09T03:02:45.654Z,0
2018-05-09T03:03:55.173Z,0
2018-05-09T03:05:04.323Z,0
2018-05-09T03:06:13.495Z,0
2018-05-09T03:07:22.691Z,0
2018-05-09T03:08:32.657Z,0
2018-05-09T03:09:42.086Z,0
2018-05-09T03:10:52.036Z,0
2018-05-09T03:12:01.199Z,0
2018-05-09T03:13:10.883Z,0
2018-05-09T03:14:20.842Z,0
2018-05-09T03:15:30.331Z,0
2018-05-09T03:16:39.247Z,0
2018-05-09T03:17:48.404Z,0
2018-05-09T03:18:58.074Z,0
2018-05-09T03:20:07.877Z,0
2018-05-09T03:21:17.598Z,0
2018-05-09T03:22:26.767Z,0
2018-05-09T03:23:35.930Z,0
2018-05-09T03:24:45.104Z,0
2018-05-09T03:25:54.535Z,0
2018-05-09T03:27:04.215Z,0
2018-05-09T03:28:13.166Z,0
2018-05-09T03:29:22.356Z,0
2018-05-09T03:30:31.798Z,0
2018-05-09T03:31:41.478Z,0
2018-05-09T03:32:50.643Z,0
2018-05-09T03:33:59.859Z,0
2018-05-09T03:35:09.023Z,0
2018-05-09T03:36:18.180Z,0
2018-05-09T03:37:27.897Z,0
2018-05-09T03:38:37.137Z,0
2018-05-09T03:39:46.306Z,0
2018-05-09T03:40:55.237Z,0
2018-05-09T03:42:04.433Z,0
2018-05-09T03:43:14.391Z,0
2018-05-09T03:44:23.568Z,0
2018-05-09T03:45:32.982Z,0
2018-05-09T03:46:42.136Z,0
2018-05-09T03:47:51.573Z,0
2018-05-09T03:49:00.768Z,0
2018-05-09T03:50:10.201Z,0
2018-05-09T03:51:19.105Z,0
2018-05-09T03:52:28.515Z,0
2018-05-09T03:53:37.705Z,0
2018-05-09T03:54:47.671Z,0
2018-05-09T03:55:56.853Z,0
2018-05-09T03:57:06.035Z,0
2018-05-09T03:58:15.726Z,0
2018-05-09T03:59:25.150Z,0
2018-05-09T04:00:35.097Z,0
2018-05-09T04:01:44.787Z,0
2018-05-09T04:02:53.724Z,0
2018-05-09T04:04:02.864Z,0
2018-05-09T04:05:12.040Z,0
2018-05-09T04:06:21.555Z,0
2018-05-09T04:07:30.748Z,0
2018-05-09T04:08:40.149Z,0
2018-05-09T04:09:49.577Z,0
2018-05-09T04:10:58.989Z,0
2018-05-09T04:12:08.420Z,0
2018-05-09T04:13:18.609Z,0
2018-05-09T04:14:27.520Z,0
2018-05-09T04:15:36.944Z,0
2018-05-09T04:16:46.098Z,0
2018-05-09T04:17:55.518Z,0
2018-05-09T04:19:05.201Z,0
2018-05-09T04:20:14.383Z,0
2018-05-09T04:21:24.312Z,0
2018-05-09T04:22:33.774Z,4
2018-05-09T04:23:43.200Z,4
2018-05-09T04:24:52.628Z,4
2018-05-09T04:26:02.618Z,4
2018-05-09T04:27:11.774Z,4
2018-05-09T04:28:21.273Z,4
2018-05-09T04:29:31.003Z,4
2018-05-09T04:30:40.693Z,4
2018-05-09T04:31:50.113Z,0
2018-05-09T04:32:59.810Z,0
2018-05-09T04:34:08.711Z,0
2018-05-09T04:35:18.438Z,0
2018-05-09T04:36:28.662Z,0
2018-05-09T04:37:38.345Z,0
2018-05-09T04:38:48.053Z,0
2018-05-09T04:39:57.244Z,0
2018-05-09T04:41:06.918Z,0
2018-05-09T04:42:16.375Z,0
2018-05-09T04:43:25.568Z,0
2018-05-09T04:44:34.764Z,4
2018-05-09T04:45:43.943Z,4
2018-05-09T04:46:53.890Z,4
2018-05-09T04:48:03.556Z,4
2018-05-09T04:49:13.753Z,4
2018-05-09T04:50:23.538Z,4
2018-05-09T04:51:32.987Z,4
2018-05-09T04:52:42.700Z,4
2018-05-09T04:53:51.886Z,4
2018-05-09T04:55:01.367Z,4
2018-05-09T04:56:10.277Z,0
2018-05-09T04:57:20.253Z,4
2018-05-09T04:58:29.716Z,4
2018-05-09T04:59:39.263Z,4
2018-05-09T05:00:48.941Z,4
2018-05-09T05:01:57.842Z,4
2018-05-09T05:03:07.537Z,4
2018-05-09T05:04:17.239Z,4
2018-05-09T05:05:26.678Z,4
2018-05-09T05:06:36.151Z,8
2018-05-09T05:07:46.086Z,4
2018-05-09T05:08:56.046Z,8
2018-05-09T05:10:05.479Z,4
2018-05-09T05:11:14.168Z,8
2018-05-09T05:12:23.599Z,8
2018-05-09T05:13:33.309Z,8
2018-05-09T05:14:42.725Z,4
2018-05-09T05:15:52.620Z,4
2018-05-09T05:17:01.788Z,4
2018-05-09T05:18:11.218Z,8
2018-05-09T05:19:20.399Z,4
2018-05-09T05:20:30.501Z,4
2018-05-09T05:21:40.197Z,4
2018-05-09T05:22:49.642Z,4
2018-05-09T05:23:59.381Z,4
2018-05-09T05:25:09.073Z,4
2018-05-09T05:26:18.787Z,4
2018-05-09T05:27:28.209Z,4
2018-05-09T05:28:38.568Z,4
2018-05-09T05:29:47.500Z,4
2018-05-09T05:30:56.669Z,8
2018-05-09T05:32:06.090Z,8
2018-05-09T05:33:15.872Z,8
2018-05-09T05:34:25.433Z,8
2018-05-09T05:35:35.088Z,8
2018-05-09T05:36:44.250Z,8
2018-05-09T05:37:53.976Z,4
2018-05-09T05:39:03.191Z,4
2018-05-09T05:40:12.119Z,4
2018-05-09T05:41:21.553Z,4
2018-05-09T05:42:30.983Z,4
2018-05-09T05:43:40.687Z,8
2018-05-09T05:44:50.479Z,8
2018-05-09T05:45:59.937Z,8
2018-05-09T05:47:09.150Z,8
2018-05-09T05:48:18.612Z,8
2018-05-09T05:49:28.037Z,8
2018-05-09T05:50:38.006Z,8
2018-05-09T05:51:47.449Z,8
2018-05-09T05:52:57.581Z,8
2018-05-09T05:54:07.021Z,8
2018-05-09T05:55:17.133Z,4
2018-05-09T05:56:26.625Z,8
2018-05-09T05:57:36.833Z,8
2018-05-09T05:58:46.301Z,8
2018-05-09T05:59:55.689Z,8
2018-05-09T06:01:06.094Z,8
2018-05-09T06:02:16.203Z,8
2018-05-09T06:03:26.009Z,12
2018-05-09T06:04:35.842Z,12
2018-05-09T06:05:45.618Z,12
2018-05-09T06:06:55.647Z,12
2018-05-09T06:08:05.611Z,12
2018-05-09T06:09:14.549Z,12
2018-05-09T06:10:23.984Z,12
2018-05-09T06:11:33.425Z,12
2018-05-09T06:12:42.868Z,12
2018-05-09T06:13:52.855Z,16
2018-05-09T06:15:02.282Z,12
2018-05-09T06:16:11.973Z,12
2018-05-09T06:17:22.183Z,16
2018-05-09T06:18:31.975Z,12
2018-05-09T06:19:41.398Z,16
2018-05-09T06:20:51.104Z,16
2018-05-09T06:22:00.304Z,16
2018-05-09T06:23:09.486Z,16
2018-05-09T06:24:19.958Z,12
2018-05-09T06:25:29.224Z,16
2018-05-09T06:26:39.163Z,16
2018-05-09T06:27:48.855Z,16
2018-05-09T06:28:58.573Z,20
2018-05-09T06:30:08.528Z,16
2018-05-09T06:31:18.245Z,16
2018-05-09T06:32:27.714Z,16
2018-05-09T06:33:37.426Z,16
2018-05-09T06:34:46.395Z,20
2018-05-09T06:35:56.091Z,20
2018-05-09T06:37:05.452Z,16
2018-05-09T06:38:14.813Z,16
2018-05-09T06:39:24.261Z,16
2018-05-09T06:40:34.198Z,20
2018-05-09T06:41:44.261Z,20
2018-05-09T06:42:53.607Z,16
2018-05-09T06:44:03.361Z,16
2018-05-09T06:45:12.790Z,20
2018-05-09T06:46:22.229Z,20
2018-05-09T06:47:32.177Z,20
2018-05-09T06:48:41.653Z,20
2018-05-09T06:49:50.913Z,20
2018-05-09T06:51:00.391Z,24
2018-05-09T06:52:09.600Z,24
2018-05-09T06:53:19.555Z,20
2018-05-09T06:54:29.539Z,24
2018-05-09T06:55:38.959Z,20
2018-05-09T06:56:48.146Z,24
2018-05-09T06:57:57.556Z,20
2018-05-09T06:59:07.385Z,20
2018-05-09T07:00:16.335Z,20
2018-05-09T07:01:26.024Z,24
2018-05-09T07:02:35.745Z,24
2018-05-09T07:03:45.207Z,24
2018-05-09T07:04:54.128Z,24
2018-05-09T07:06:03.046Z,24
2018-05-09T07:07:12.532Z,24
2018-05-09T07:08:22.011Z,24
2018-05-09T07:09:30.977Z,28
2018-05-09T07:10:40.688Z,24
2018-05-09T07:11:50.105Z,28
2018-05-09T07:12:59.564Z,28
2018-05-09T07:14:08.730Z,28
2018-05-09T07:15:17.906Z,28
2018-05-09T07:16:27.066Z,28
2018-05-09T07:17:36.535Z,28
2018-05-09T07:18:45.448Z,28
2018-05-09T07:19:55.407Z,32
2018-05-09T07:21:04.830Z,32
2018-05-09T07:22:14.549Z,32
2018-05-09T07:23:24.543Z,28
2018-05-09T07:24:33.189Z,28
2018-05-09T07:25:42.721Z,32
2018-05-09T07:26:51.900Z,32
2018-05-09T07:28:01.578Z,32
2018-05-09T07:29:10.472Z,32
2018-05-09T07:30:20.157Z,36
2018-05-09T07:31:29.838Z,36
2018-05-09T07:32:39.507Z,36
2018-05-09T07:33:48.678Z,36
2018-05-09T07:34:58.364Z,40
2018-05-09T07:36:07.832Z,36
2018-05-09T07:37:17.270Z,36
2018-05-09T07:38:26.952Z,40
2018-05-09T07:39:36.386Z,40
2018-05-09T07:40:46.313Z,40
2018-05-09T07:41:56.225Z,36
2018-05-09T07:43:06.131Z,36
2018-05-09T07:44:15.843Z,36
2018-05-09T07:45:25.557Z,40
2018-05-09T07:46:35.785Z,40
2018-05-09T07:47:45.616Z,44
2018-05-09T07:48:55.249Z,44
2018-05-09T07:50:04.923Z,40
2018-05-09T07:51:14.710Z,40
2018-05-09T07:52:24.152Z,40
2018-05-09T07:53:33.832Z,40
2018-05-09T07:54:42.994Z,40
2018-05-09T07:55:52.738Z,44
2018-05-09T07:57:01.927Z,40
2018-05-09T07:58:11.105Z,40
2018-05-09T07:59:20.544Z,40
2018-05-09T08:00:30.235Z,40
2018-05-09T08:01:39.707Z,40
2018-05-09T08:02:49.144Z,40
2018-05-09T08:03:58.576Z,40
2018-05-09T08:05:08.303Z,40
2018-05-09T08:06:17.757Z,44
2018-05-09T08:07:26.941Z,44
2018-05-09T08:08:36.656Z,44
2018-05-09T08:09:46.087Z,44
2018-05-09T08:10:55.348Z,40
2018-05-09T08:12:05.375Z,40
2018-05-09T08:13:15.078Z,40
2018-05-09T08:14:24.512Z,44
2018-05-09T08:15:34.224Z,44
2018-05-09T08:16:43.918Z,44
2018-05-09T08:17:53.342Z,44
2018-05-09T08:19:03.056Z,44
2018-05-09T08:20:12.469Z,44
2018-05-09T08:21:21.900Z,44
2018-05-09T08:22:31.344Z,44
2018-05-09T08:23:40.508Z,44
2018-05-09T08:24:49.706Z,44
2018-05-09T08:25:59.138Z,44
2018-05-09T08:27:09.117Z,44
2018-05-09T08:28:18.810Z,44
2018-05-09T08:29:27.997Z,44
2018-05-09T08:30:37.463Z,44
2018-05-09T08:31:46.888Z,44
2018-05-09T08:32:56.342Z,44
2018-05-09T08:34:05.506Z,44
2018-05-09T08:35:14.678Z,44
2018-05-09T08:36:23.882Z,44
2018-05-09T08:37:33.313Z,48
2018-05-09T08:38:42.769Z,44
2018-05-09T08:39:51.945Z,48
2018-05-09T08:41:01.657Z,44
2018-05-09T08:42:10.811Z,44
2018-05-09T08:43:20.612Z,48
2018-05-09T08:44:30.225Z,44
2018-05-09T08:45:39.923Z,48
2018-05-09T08:46:49.637Z,48
2018-05-09T08:47:59.061Z,48
2018-05-09T08:49:08.281Z,44
2018-05-09T08:50:17.469Z,44
2018-05-09T08:51:26.630Z,4
2018-05-09T08:52:36.322Z,4
2018-05-09T08:53:46.095Z,4
2018-05-09T08:54:55.297Z,4
2018-05-09T08:56:04.262Z,4
2018-05-09T08:57:13.720Z,4
2018-05-09T08:58:23.179Z,4
2018-05-09T08:59:32.872Z,4
2018-05-09T09:00:42.052Z,4
2018-05-09T09:01:51.237Z,4
2018-05-09T09:03:01.185Z,0
2018-05-09T09:04:10.354Z,0
2018-05-09T09:05:19.285Z,0
2018-05-09T09:06:29.075Z,0
2018-05-09T09:07:38.184Z,0
2018-05-09T09:08:47.884Z,0
2018-05-09T09:09:57.328Z,0
2018-05-09T09:11:05.975Z,0
2018-05-09T09:12:15.698Z,0
2018-05-09T09:13:25.412Z,0
2018-05-09T09:14:34.824Z,0
2018-05-09T09:15:44.615Z,0
2018-05-09T09:16:53.573Z,0
2018-05-09T09:18:02.735Z,0
2018-05-09T09:19:12.197Z,0
2018-05-09T09:20:21.628Z,0
2018-05-09T09:21:31.613Z,0
2018-05-09T09:22:41.035Z,0
2018-05-09T09:23:49.991Z,0
2018-05-09T09:24:59.425Z,0
2018-05-09T09:26:08.601Z,0
2018-05-09T09:27:18.047Z,0
2018-05-09T09:28:27.472Z,0
2018-05-09T09:29:36.901Z,0
2018-05-09T09:30:46.334Z,0
2018-05-09T09:31:55.810Z,0
2018-05-09T09:33:05.498Z,0
2018-05-09T09:34:15.184Z,0
2018-05-09T09:35:24.701Z,0
2018-05-09T09:36:33.871Z,0
2018-05-09T09:37:43.285Z,0
2018-05-09T09:38:53.002Z,0
2018-05-09T09:40:02.439Z,0
2018-05-09T09:41:11.612Z,0
2018-05-09T09:42:21.304Z,0
2018-05-09T09:43:30.985Z,0
2018-05-09T09:44:40.163Z,0
2018-05-09T09:45:49.855Z,0
2018-05-09T09:46:59.055Z,0
2018-05-09T09:48:08.276Z,0
2018-05-09T09:49:17.981Z,0
2018-05-09T09:50:26.907Z,0
2018-05-09T09:51:36.403Z,0
2018-05-09T09:52:45.299Z,0
2018-05-09T09:53:54.468Z,0
2018-05-09T09:55:04.154Z,0
2018-05-09T09:56:13.860Z,0
2018-05-09T09:57:23.327Z,0
2018-05-09T09:58:32.995Z,0
2018-05-09T09:59:42.157Z,0
2018-05-09T10:00:51.827Z,0
2018-05-09T10:02:01.787Z,0
2018-05-09T10:03:11.202Z,0
2018-05-09T10:04:20.885Z,0
2018-05-09T10:05:29.807Z,0
2018-05-09T10:06:38.961Z,0
2018-05-09T10:07:48.124Z,0
2018-05-09T10:08:57.030Z,0
2018-05-09T10:10:06.725Z,0
2018-05-09T10:11:16.658Z,0
2018-05-09T10:12:26.334Z,0
2018-05-09T10:13:36.290Z,0
2018-05-09T10:14:45.721Z,0
2018-05-09T10:15:55.559Z,0
2018-05-09T10:17:05.612Z,0
2018-05-09T10:18:15.315Z,0
2018-05-09T10:19:24.499Z,0
2018-05-09T10:20:33.408Z,0
2018-05-09T10:21:42.583Z,0
2018-05-09T10:22:52.796Z,0
2018-05-09T10:24:02.497Z,0
2018-05-09T10:25:11.918Z,0
2018-05-09T10:26:21.881Z,0
2018-05-09T10:27:31.065Z,0
2018-05-09T10:28:40.760Z,0
2018-05-09T10:29:49.961Z,0
2018-05-09T10:30:58.859Z,0
2018-05-09T10:32:08.001Z,4
2018-05-09T10:33:17.432Z,0
2018-05-09T10:34:26.588Z,4
2018-05-09T10:35:36.265Z,4
2018-05-09T10:36:46.220Z,4
2018-05-09T10:37:55.665Z,4
2018-05-09T10:39:04.958Z,4
2018-05-09T10:40:14.888Z,4
2018-05-09T10:41:24.572Z,4
2018-05-09T10:42:34.255Z,4
2018-05-09T10:43:43.961Z,4
2018-05-09T10:44:53.386Z,4
2018-05-09T10:46:02.591Z,4
2018-05-09T10:47:12.011Z,4
2018-05-09T10:48:21.747Z,4
2018-05-09T10:49:31.449Z,4
2018-05-09T10:50:41.145Z,4
2018-05-09T10:51:50.622Z,4
2018-05-09T10:53:00.054Z,4
2018-05-09T10:54:10.017Z,4
2018-05-09T10:55:19.441Z,4
2018-05-09T10:56:29.380Z,4
2018-05-09T10:57:39.064Z,4
2018-05-09T10:58:48.506Z,4
2018-05-09T10:59:58.185Z,4
2018-05-09T11:01:07.113Z,4
2018-05-09T11:02:16.714Z,4
2018-05-09T11:03:26.662Z,4
2018-05-09T11:04:35.814Z,4
2018-05-09T11:05:45.015Z,4
2018-05-09T11:06:54.706Z,4
2018-05-09T11:08:04.120Z,4
2018-05-09T11:09:13.579Z,4
2018-05-09T11:10:22.513Z,4
2018-05-09T11:11:32.219Z,4
2018-05-09T11:12:41.668Z,4
2018-05-09T11:13:51.104Z,4
2018-05-09T11:15:01.060Z,4
2018-05-09T11:16:10.017Z,4
2018-05-09T11:17:19.990Z,4
2018-05-09T11:18:29.168Z,4
2018-05-09T11:19:38.407Z,4
2018-05-09T11:20:48.369Z,4
2018-05-09T11:21:57.785Z,4
2018-05-09T11:23:07.477Z,4
2018-05-09T11:24:17.261Z,4
2018-05-09T11:25:26.517Z,4
2018-05-09T11:26:35.684Z,4
2018-05-09T11:27:45.676Z,4
2018-05-09T11:28:55.393Z,4
2018-05-09T11:30:04.589Z,4
2018-05-09T11:31:14.275Z,4
2018-05-09T11:32:23.937Z,4
2018-05-09T11:33:33.108Z,4
2018-05-09T11:34:42.279Z,0
2018-05-09T11:35:51.759Z,4
2018-05-09T11:37:01.760Z,4
2018-05-09T11:38:11.052Z,4
2018-05-09T11:39:20.523Z,4
2018-05-09T11:40:29.807Z,4
2018-05-09T11:41:39.120Z,4
2018-05-09T11:42:48.326Z,4
2018-05-09T11:43:58.043Z,4
2018-05-09T11:45:07.215Z,4
2018-05-09T11:46:16.631Z,4
2018-05-09T11:47:26.125Z,0
2018-05-09T11:48:35.067Z,0
2018-05-09T11:49:43.989Z,4
2018-05-09T11:50:52.897Z,4
2018-05-09T11:52:02.863Z,4
2018-05-09T11:53:12.818Z,4
2018-05-09T11:54:22.615Z,4
2018-05-09T11:55:31.532Z,4
2018-05-09T11:56:41.231Z,4
2018-05-09T11:57:50.165Z,4
2018-05-09T11:58:59.847Z,4
2018-05-09T12:00:09.018Z,4
2018-05-09T12:01:18.185Z,4
2018-05-09T12:02:27.960Z,4
2018-05-09T12:03:38.036Z,4
2018-05-09T12:04:47.796Z,4
2018-05-09T12:05:57.016Z,4
2018-05-09T12:07:06.725Z,4
2018-05-09T12:08:16.673Z,4
2018-05-09T12:09:26.104Z,4
2018-05-09T12:10:35.947Z,4
2018-05-09T12:11:45.962Z,4
2018-05-09T12:12:55.441Z,4
2018-05-09T12:14:04.631Z,4
2018-05-09T12:15:14.058Z,8
2018-05-09T12:16:23.521Z,8
2018-05-09T12:17:32.707Z,8
2018-05-09T12:18:42.410Z,4
2018-05-09T12:19:52.109Z,4
2018-05-09T12:21:01.896Z,4
2018-05-09T12:22:11.348Z,4
2018-05-09T12:23:20.770Z,4
2018-05-09T12:24:30.259Z,8
2018-05-09T12:25:40.035Z,8
2018-05-09T12:26:49.751Z,8
2018-05-09T12:27:58.938Z,8
2018-05-09T12:29:08.400Z,8
2018-05-09T12:30:17.644Z,4
2018-05-09T12:31:27.668Z,4
2018-05-09T12:32:37.418Z,8
2018-05-09T12:33:46.614Z,8
2018-05-09T12:34:56.075Z,8
2018-05-09T12:36:05.747Z,8
2018-05-09T12:37:15.217Z,8
2018-05-09T12:38:24.434Z,8
2018-05-09T12:39:34.154Z,12
2018-05-09T12:40:43.823Z,12
2018-05-09T12:41:53.250Z,8
2018-05-09T12:43:03.226Z,8
2018-05-09T12:44:12.931Z,8
2018-05-09T12:45:22.440Z,8
2018-05-09T12:46:31.611Z,8
2018-05-09T12:47:41.028Z,12
2018-05-09T12:48:50.206Z,12
2018-05-09T12:49:59.833Z,12
2018-05-09T12:51:09.297Z,12
2018-05-09T12:52:18.473Z,12
2018-05-09T12:53:28.445Z,8
2018-05-09T12:54:38.762Z,8
2018-05-09T12:55:48.258Z,12
2018-05-09T12:56:57.743Z,12
2018-05-09T12:58:07.194Z,12
2018-05-09T12:59:16.364Z,12
2018-05-09T13:00:26.239Z,12
2018-05-09T13:01:35.859Z,12
2018-05-09T13:02:45.587Z,12
2018-05-09T13:03:54.830Z,12
2018-05-09T13:05:04.285Z,12
2018-05-09T13:06:13.733Z,12
2018-05-09T13:07:23.653Z,16
2018-05-09T13:08:33.363Z,16
2018-05-09T13:09:42.323Z,16
2018-05-09T13:10:51.502Z,16
2018-05-09T13:12:00.672Z,16
2018-05-09T13:13:10.454Z,12
2018-05-09T13:14:19.679Z,16
2018-05-09T13:15:29.117Z,16
2018-05-09T13:16:38.870Z,16
2018-05-09T13:17:48.330Z,16
2018-05-09T13:18:57.786Z,16
2018-05-09T13:20:07.747Z,16
2018-05-09T13:21:16.972Z,12
2018-05-09T13:22:25.887Z,16
2018-05-09T13:23:34.867Z,16
2018-05-09T13:24:44.598Z,16
2018-05-09T13:25:54.203Z,16
2018-05-09T13:27:03.895Z,16
2018-05-09T13:28:13.590Z,16
2018-05-09T13:29:23.017Z,16
2018-05-09T13:30:32.476Z,16
2018-05-09T13:31:42.419Z,16
2018-05-09T13:32:51.862Z,16
2018-05-09T13:34:01.040Z,12
2018-05-09T13:35:10.503Z,12
2018-05-09T13:36:19.947Z,12
2018-05-09T13:37:29.384Z,16
2018-05-09T13:38:39.089Z,12
2018-05-09T13:39:47.809Z,12
2018-05-09T13:40:57.443Z,12
2018-05-09T13:42:06.894Z,16
2018-05-09T13:43:16.079Z,16
2018-05-09T13:44:25.543Z,12
2018-05-09T13:45:35.546Z,12
2018-05-09T13:46:44.984Z,12
2018-05-09T13:47:54.662Z,16
2018-05-09T13:49:04.106Z,16
2018-05-09T13:50:13.521Z,16
2018-05-09T13:51:23.460Z,16
2018-05-09T13:52:33.139Z,16
2018-05-09T13:53:42.634Z,16
2018-05-09T13:54:52.475Z,8
2018-05-09T13:56:01.908Z,16
2018-05-09T13:57:11.637Z,64
2018-05-09T13:58:21.758Z,60
2018-05-09T13:59:31.459Z,60
2018-05-09T14:00:40.882Z,60
2018-05-09T14:01:50.152Z,60
2018-05-09T14:03:00.140Z,56
2018-05-09T14:04:11.090Z,56
2018-05-09T14:05:21.375Z,60
2018-05-09T14:06:30.841Z,60
2018-05-09T14:07:40.270Z,56
2018-05-09T14:08:49.967Z,56
2018-05-09T14:09:59.782Z,56
2018-05-09T14:11:09.584Z,20
2018-05-09T14:12:19.268Z,16
2018-05-09T14:13:29.003Z,20
2018-05-09T14:14:38.416Z,16
2018-05-09T14:15:47.585Z,8
2018-05-09T14:16:56.782Z,4
2018-05-09T14:18:06.202Z,4
2018-05-09T14:19:15.445Z,4
2018-05-09T14:20:24.648Z,4
2018-05-09T14:21:34.347Z,4
2018-05-09T14:22:43.544Z,4
2018-05-09T14:23:52.999Z,4
2018-05-09T14:25:02.955Z,4
2018-05-09T14:26:12.140Z,0
2018-05-09T14:27:22.131Z,4
2018-05-09T14:28:31.573Z,0
2018-05-09T14:29:41.276Z,4
2018-05-09T14:30:50.746Z,4
2018-05-09T14:32:00.473Z,4
2018-05-09T14:33:10.187Z,4
2018-05-09T14:34:19.889Z,4
2018-05-09T14:35:28.811Z,4
2018-05-09T14:36:38.264Z,4
2018-05-09T14:37:48.253Z,4
2018-05-09T14:38:57.699Z,8
2018-05-09T14:40:07.164Z,8
2018-05-09T14:41:16.097Z,4
2018-05-09T14:42:25.802Z,0
2018-05-09T14:43:35.256Z,4
2018-05-09T14:44:44.947Z,4
2018-05-09T14:45:54.736Z,0
2018-05-09T14:47:04.268Z,4
2018-05-09T14:48:13.947Z,0
2018-05-09T14:49:23.411Z,0
2018-05-09T14:50:33.435Z,4
2018-05-09T14:51:43.088Z,4
2018-05-09T14:52:52.267Z,4
2018-05-09T14:54:01.947Z,4
2018-05-09T14:55:11.391Z,0
2018-05-09T14:56:20.804Z,0
2018-05-09T14:57:29.992Z,0
2018-05-09T14:58:38.893Z,4
2018-05-09T14:59:48.354Z,0
2018-05-09T15:00:58.623Z,0
2018-05-09T15:02:07.811Z,4
2018-05-09T15:03:17.226Z,0
2018-05-09T15:04:26.956Z,0
2018-05-09T15:05:36.140Z,4
2018-05-09T15:06:45.586Z,4
2018-05-09T15:07:55.272Z,4
2018-05-09T15:09:04.462Z,8
2018-05-09T15:10:14.177Z,8
2018-05-09T15:11:23.617Z,8
2018-05-09T15:12:33.069Z,8
2018-05-09T15:13:42.264Z,8
2018-05-09T15:14:51.973Z,8
2018-05-09T15:16:01.158Z,8
2018-05-09T15:17:10.585Z,8
2018-05-09T15:18:19.646Z,8
2018-05-09T15:19:29.471Z,4
2018-05-09T15:20:38.327Z,8
2018-05-09T15:21:47.771Z,8
2018-05-09T15:22:57.225Z,8
2018-05-09T15:24:06.898Z,8
2018-05-09T15:25:16.360Z,4
2018-05-09T15:26:26.074Z,4
2018-05-09T15:27:35.787Z,8
2018-05-09T15:28:45.721Z,8
2018-05-09T15:29:55.173Z,4
2018-05-09T15:31:04.864Z,4
2018-05-09T15:32:14.580Z,4
2018-05-09T15:33:23.494Z,4
2018-05-09T15:34:32.701Z,4
2018-05-09T15:35:42.884Z,8
2018-05-09T15:36:52.600Z,4
2018-05-09T15:38:02.051Z,4
2018-05-09T15:39:12.135Z,4
2018-05-09T15:40:21.569Z,4
2018-05-09T15:41:30.771Z,4
2018-05-09T15:42:40.712Z,4
2018-05-09T15:43:49.874Z,4
2018-05-09T15:44:59.331Z,4
2018-05-09T15:46:09.019Z,4
2018-05-09T15:47:18.439Z,4
2018-05-09T15:48:28.130Z,4
2018-05-09T15:49:37.546Z,4
2018-05-09T15:50:46.189Z,4
2018-05-09T15:51:55.628Z,4
2018-05-09T15:53:04.920Z,4
2018-05-09T15:54:14.649Z,4
2018-05-09T15:55:24.285Z,4
2018-05-09T15:56:33.972Z,4
2018-05-09T15:57:43.410Z,4
2018-05-09T15:58:52.630Z,4
2018-05-09T16:00:02.307Z,4
2018-05-09T16:01:11.282Z,4
2018-05-09T16:02:20.463Z,4
2018-05-09T16:03:29.625Z,4
2018-05-09T16:04:39.317Z,4
2018-05-09T16:05:48.735Z,4
2018-05-09T16:06:58.169Z,8
2018-05-09T16:08:07.626Z,4
2018-05-09T16:09:17.048Z,4
2018-05-09T16:10:27.203Z,4
2018-05-09T16:11:36.829Z,4
2018-05-09T16:12:46.046Z,4
2018-05-09T16:13:55.751Z,4
2018-05-09T16:15:04.676Z,4
2018-05-09T16:16:13.846Z,4
2018-05-09T16:17:23.009Z,4
2018-05-09T16:18:32.699Z,4
2018-05-09T16:19:42.382Z,4
2018-05-09T16:20:51.572Z,4
2018-05-09T16:22:01.245Z,4
2018-05-09T16:23:10.926Z,4
2018-05-09T16:24:20.389Z,4
2018-05-09T16:25:30.088Z,4
2018-05-09T16:26:39.277Z,4
2018-05-09T16:27:48.717Z,4
2018-05-09T16:28:57.897Z,4
2018-05-09T16:30:06.805Z,4
2018-05-09T16:31:16.221Z,4
2018-05-09T16:32:25.916Z,4
2018-05-09T16:33:35.587Z,0
2018-05-09T16:34:45.023Z,4
2018-05-09T16:35:54.443Z,4
2018-05-09T16:37:03.603Z,4
2018-05-09T16:38:12.508Z,4
2018-05-09T16:39:21.678Z,4
2018-05-09T16:40:31.105Z,4
2018-05-09T16:41:40.569Z,4
2018-05-09T16:42:50.002Z,4
2018-05-09T16:43:59.453Z,4
2018-05-09T16:45:09.191Z,4
2018-05-09T16:46:18.616Z,4
2018-05-09T16:47:28.061Z,4
2018-05-09T16:48:38.000Z,8
2018-05-09T16:49:47.685Z,4
2018-05-09T16:50:57.124Z,4
2018-05-09T16:52:06.828Z,4
2018-05-09T16:53:16.442Z,4
2018-05-09T16:54:25.979Z,4
2018-05-09T16:55:35.434Z,4
2018-05-09T16:56:44.859Z,4
2018-05-09T16:57:54.007Z,4
2018-05-09T16:59:03.568Z,4